Archival Weather

Chicago O'Hare International

Chicago, Illinois (KORD)

Report from: Tuesday, December 6, 2022 6:51 PM CST
Current time: Friday, June 21, 2024 3:17 AM CDT

Current weather – Weather history – Daily summaries
Weather forecast

Temperature6.1°C (43.0°F)
Wind chill4.6°C (40.3°F)
Dew point2.8°C (37.0°F)
Winds 4 kts (2.1 m/s, 4.6 mph) East (80°)
Visibility7 mi. (11.3 km)
Clouds Scattered clouds 1,300 ft. (396 m)
Ceiling: Broken clouds 2,000 ft. (610 m)
Overcast 11,000 ft. (3,353 m)
Altimeter30.02 in.Hg (1017 mB)
Relative humidity79 %
Density altitude-1,093 ft. (-333 m)
Sea-level pressure101.7 kPa (1017 mB, 30.04 in.Hg)
Remarks Automated weather observing station with precipitation discriminator
Flight conditions Marginal Visual Meteorological Conditions
Raw dataKORD 070051Z 08004KT 7SM SCT013 BKN020 OVC110 06/03 A3002 RMK AO2 SLP171 T00610028
An error has occurred. This application may no longer respond until reloaded. Reload 🗙